sensor_id;sensor_type;location;lat;lon;timestamp;temperature;humidity
53748;DHT22;39655;53.210;5.768;2023-07-31T00:01:07;16.50;96.70
53748;DHT22;39655;53.210;5.768;2023-07-31T00:03:33;16.50;96.60
53748;DHT22;39655;53.210;5.768;2023-07-31T00:05:59;16.50;96.70
53748;DHT22;39655;53.210;5.768;2023-07-31T00:08:25;16.60;96.80
53748;DHT22;39655;53.210;5.768;2023-07-31T00:10:56;16.60;96.90
53748;DHT22;39655;53.210;5.768;2023-07-31T00:13:22;16.60;96.80
53748;DHT22;39655;53.210;5.768;2023-07-31T00:15:48;16.60;96.90
53748;DHT22;39655;53.210;5.768;2023-07-31T00:18:14;16.60;96.90
53748;DHT22;39655;53.210;5.768;2023-07-31T00:20:43;16.70;97.00
53748;DHT22;39655;53.210;5.768;2023-07-31T00:23:09;16.70;96.90
53748;DHT22;39655;53.210;5.768;2023-07-31T00:25:35;16.60;96.80
53748;DHT22;39655;53.210;5.768;2023-07-31T00:28:10;16.60;96.90
53748;DHT22;39655;53.210;5.768;2023-07-31T00:30:59;16.60;96.90
53748;DHT22;39655;53.210;5.768;2023-07-31T00:33:34;16.60;96.90
53748;DHT22;39655;53.210;5.768;2023-07-31T00:36:02;16.70;97.00
53748;DHT22;39655;53.210;5.768;2023-07-31T00:39:07;16.60;96.90
53748;DHT22;39655;53.210;5.768;2023-07-31T00:41:47;16.60;96.90
53748;DHT22;39655;53.210;5.768;2023-07-31T00:47:07;16.60;96.90
53748;DHT22;39655;53.210;5.768;2023-07-31T00:49:36;16.60;97.10
53748;DHT22;39655;53.210;5.768;2023-07-31T00:52:04;16.60;97.00
53748;DHT22;39655;53.210;5.768;2023-07-31T00:54:39;16.50;96.90
53748;DHT22;39655;53.210;5.768;2023-07-31T00:57:21;16.40;97.00
53748;DHT22;39655;53.210;5.768;2023-07-31T00:59:52;16.40;97.00
53748;DHT22;39655;53.210;5.768;2023-07-31T01:02:18;16.40;97.00
53748;DHT22;39655;53.210;5.768;2023-07-31T01:04:45;16.40;97.10
53748;DHT22;39655;53.210;5.768;2023-07-31T01:07:22;16.40;97.00
53748;DHT22;39655;53.210;5.768;2023-07-31T01:12:27;16.40;97.10
53748;DHT22;39655;53.210;5.768;2023-07-31T01:15:03;16.30;97.20
53748;DHT22;39655;53.210;5.768;2023-07-31T01:17:33;16.40;97.20
53748;DHT22;39655;53.210;5.768;2023-07-31T01:27:12;16.20;97.30
53748;DHT22;39655;53.210;5.768;2023-07-31T01:30:32;16.20;97.30
53748;DHT22;39655;53.210;5.768;2023-07-31T01:33:21;16.10;97.20
53748;DHT22;39655;53.210;5.768;2023-07-31T01:44:26;16.10;97.40
53748;DHT22;39655;53.210;5.768;2023-07-31T01:46:58;16.10;97.40
53748;DHT22;39655;53.210;5.768;2023-07-31T01:49:39;16.10;97.40
53748;DHT22;39655;53.210;5.768;2023-07-31T01:52:08;16.10;97.50
53748;DHT22;39655;53.210;5.768;2023-07-31T01:54:34;16.10;97.50
53748;DHT22;39655;53.210;5.768;2023-07-31T01:56:59;16.10;97.50
53748;DHT22;39655;53.210;5.768;2023-07-31T01:59:31;16.00;97.40
53748;DHT22;39655;53.210;5.768;2023-07-31T02:02:03;16.00;97.50
53748;DHT22;39655;53.210;5.768;2023-07-31T02:04:29;15.90;97.50
53748;DHT22;39655;53.210;5.768;2023-07-31T02:06:55;15.90;97.50
53748;DHT22;39655;53.210;5.768;2023-07-31T02:09:21;15.90;97.50
53748;DHT22;39655;53.210;5.768;2023-07-31T02:11:49;15.90;97.50
53748;DHT22;39655;53.210;5.768;2023-07-31T02:14:15;15.90;97.50
53748;DHT22;39655;53.210;5.768;2023-07-31T02:16:41;16.00;97.50
53748;DHT22;39655;53.210;5.768;2023-07-31T02:19:08;15.90;97.50
53748;DHT22;39655;53.210;5.768;2023-07-31T02:21:34;15.90;97.50
53748;DHT22;39655;53.210;5.768;2023-07-31T02:24:00;15.80;97.50
53748;DHT22;39655;53.210;5.768;2023-07-31T02:26:29;15.90;97.60
53748;DHT22;39655;53.210;5.768;2023-07-31T02:28:58;15.90;97.60
53748;DHT22;39655;53.210;5.768;2023-07-31T02:31:26;15.90;97.70
53748;DHT22;39655;53.210;5.768;2023-07-31T02:33:55;15.90;97.70
53748;DHT22;39655;53.210;5.768;2023-07-31T02:36:51;15.90;97.70
53748;DHT22;39655;53.210;5.768;2023-07-31T02:39:32;15.90;97.70
53748;DHT22;39655;53.210;5.768;2023-07-31T02:42:22;15.80;97.70
53748;DHT22;39655;53.210;5.768;2023-07-31T02:44:55;15.90;97.70
53748;DHT22;39655;53.210;5.768;2023-07-31T02:47:28;15.80;97.70
53748;DHT22;39655;53.210;5.768;2023-07-31T02:50:06;15.90;97.70
53748;DHT22;39655;53.210;5.768;2023-07-31T02:52:43;15.90;97.70
53748;DHT22;39655;53.210;5.768;2023-07-31T02:55:15;15.90;97.80
53748;DHT22;39655;53.210;5.768;2023-07-31T02:57:49;15.90;97.80
53748;DHT22;39655;53.210;5.768;2023-07-31T03:00:33;15.90;97.80
53748;DHT22;39655;53.210;5.768;2023-07-31T03:06:44;15.80;97.80
53748;DHT22;39655;53.210;5.768;2023-07-31T03:10:00;15.80;97.90
53748;DHT22;39655;53.210;5.768;2023-07-31T03:12:36;15.70;97.90
53748;DHT22;39655;53.210;5.768;2023-07-31T03:15:38;15.70;97.80
53748;DHT22;39655;53.210;5.768;2023-07-31T03:18:11;15.60;97.90
53748;DHT22;39655;53.210;5.768;2023-07-31T03:20:37;15.60;97.90
53748;DHT22;39655;53.210;5.768;2023-07-31T03:23:21;15.60;97.90
53748;DHT22;39655;53.210;5.768;2023-07-31T03:26:13;15.70;98.00
53748;DHT22;39655;53.210;5.768;2023-07-31T03:28:54;15.70;98.00
53748;DHT22;39655;53.210;5.768;2023-07-31T03:31:22;15.60;98.00
53748;DHT22;39655;53.210;5.768;2023-07-31T03:33:48;15.60;97.90
53748;DHT22;39655;53.210;5.768;2023-07-31T03:36:14;15.60;98.00
53748;DHT22;39655;53.210;5.768;2023-07-31T03:38:40;15.60;98.00
53748;DHT22;39655;53.210;5.768;2023-07-31T03:41:07;15.60;98.00
53748;DHT22;39655;53.210;5.768;2023-07-31T03:43:37;15.60;98.00
53748;DHT22;39655;53.210;5.768;2023-07-31T03:46:03;15.70;98.00
53748;DHT22;39655;53.210;5.768;2023-07-31T03:48:29;15.60;98.10
53748;DHT22;39655;53.210;5.768;2023-07-31T03:50:55;15.60;98.00
53748;DHT22;39655;53.210;5.768;2023-07-31T03:53:21;15.70;98.10
53748;DHT22;39655;53.210;5.768;2023-07-31T03:55:47;15.60;98.00
53748;DHT22;39655;53.210;5.768;2023-07-31T03:58:13;15.60;98.10
53748;DHT22;39655;53.210;5.768;2023-07-31T04:00:40;15.60;98.10
53748;DHT22;39655;53.210;5.768;2023-07-31T04:03:06;15.60;98.10
53748;DHT22;39655;53.210;5.768;2023-07-31T04:05:32;15.70;98.10
53748;DHT22;39655;53.210;5.768;2023-07-31T04:07:58;15.70;98.10
53748;DHT22;39655;53.210;5.768;2023-07-31T04:10:29;15.70;98.10
53748;DHT22;39655;53.210;5.768;2023-07-31T04:12:56;15.70;98.10
53748;DHT22;39655;53.210;5.768;2023-07-31T04:15:22;15.70;98.10
53748;DHT22;39655;53.210;5.768;2023-07-31T04:17:48;15.80;98.10
53748;DHT22;39655;53.210;5.768;2023-07-31T04:20:13;15.90;98.20
53748;DHT22;39655;53.210;5.768;2023-07-31T04:22:39;15.90;98.20
53748;DHT22;39655;53.210;5.768;2023-07-31T04:25:05;16.10;98.30
53748;DHT22;39655;53.210;5.768;2023-07-31T04:27:31;16.20;98.40
53748;DHT22;39655;53.210;5.768;2023-07-31T04:29:57;16.30;98.40
53748;DHT22;39655;53.210;5.768;2023-07-31T04:32:23;16.30;98.50
53748;DHT22;39655;53.210;5.768;2023-07-31T04:34:48;16.40;98.50
53748;DHT22;39655;53.210;5.768;2023-07-31T04:37:14;16.40;98.50
53748;DHT22;39655;53.210;5.768;2023-07-31T04:39:40;16.30;98.40
53748;DHT22;39655;53.210;5.768;2023-07-31T04:42:06;16.30;98.40
53748;DHT22;39655;53.210;5.768;2023-07-31T04:44:31;16.20;98.40
53748;DHT22;39655;53.210;5.768;2023-07-31T04:46:57;16.30;98.40
53748;DHT22;39655;53.210;5.768;2023-07-31T04:49:23;16.20;98.40
53748;DHT22;39655;53.210;5.768;2023-07-31T04:51:49;16.30;98.50
53748;DHT22;39655;53.210;5.768;2023-07-31T04:54:18;16.30;98.50
53748;DHT22;39655;53.210;5.768;2023-07-31T04:56:44;16.30;98.50
53748;DHT22;39655;53.210;5.768;2023-07-31T04:59:09;16.30;98.40
53748;DHT22;39655;53.210;5.768;2023-07-31T05:01:35;16.30;98.50
53748;DHT22;39655;53.210;5.768;2023-07-31T05:04:04;16.30;98.50
53748;DHT22;39655;53.210;5.768;2023-07-31T05:06:29;16.30;98.50
53748;DHT22;39655;53.210;5.768;2023-07-31T05:09:00;16.30;98.50
53748;DHT22;39655;53.210;5.768;2023-07-31T05:11:31;16.20;98.40
53748;DHT22;39655;53.210;5.768;2023-07-31T05:14:14;16.30;98.50
53748;DHT22;39655;53.210;5.768;2023-07-31T05:16:43;16.30;98.50
53748;DHT22;39655;53.210;5.768;2023-07-31T05:19:17;16.30;98.50
53748;DHT22;39655;53.210;5.768;2023-07-31T05:21:54;16.40;98.50
53748;DHT22;39655;53.210;5.768;2023-07-31T05:24:25;16.40;98.50
53748;DHT22;39655;53.210;5.768;2023-07-31T05:26:53;16.50;98.60
53748;DHT22;39655;53.210;5.768;2023-07-31T05:29:19;16.50;98.60
53748;DHT22;39655;53.210;5.768;2023-07-31T05:31:45;16.50;98.60
53748;DHT22;39655;53.210;5.768;2023-07-31T05:34:11;16.60;98.60
53748;DHT22;39655;53.210;5.768;2023-07-31T05:36:36;16.60;98.60
53748;DHT22;39655;53.210;5.768;2023-07-31T05:39:02;16.60;98.60
53748;DHT22;39655;53.210;5.768;2023-07-31T05:41:32;16.60;98.60
53748;DHT22;39655;53.210;5.768;2023-07-31T05:43:57;16.60;98.60
53748;DHT22;39655;53.210;5.768;2023-07-31T05:46:23;16.60;98.60
53748;DHT22;39655;53.210;5.768;2023-07-31T05:48:52;16.60;98.60
53748;DHT22;39655;53.210;5.768;2023-07-31T05:51:18;16.60;98.60
53748;DHT22;39655;53.210;5.768;2023-07-31T05:53:49;16.40;98.60
53748;DHT22;39655;53.210;5.768;2023-07-31T05:56:17;16.40;98.60
53748;DHT22;39655;53.210;5.768;2023-07-31T05:58:43;16.50;98.60
53748;DHT22;39655;53.210;5.768;2023-07-31T06:01:09;16.50;98.60
53748;DHT22;39655;53.210;5.768;2023-07-31T06:03:37;16.50;98.70
53748;DHT22;39655;53.210;5.768;2023-07-31T06:06:03;16.50;98.70
53748;DHT22;39655;53.210;5.768;2023-07-31T06:08:28;16.50;98.70
53748;DHT22;39655;53.210;5.768;2023-07-31T06:10:57;16.50;98.70
53748;DHT22;39655;53.210;5.768;2023-07-31T06:13:25;16.50;98.70
53748;DHT22;39655;53.210;5.768;2023-07-31T06:15:52;16.50;98.70
53748;DHT22;39655;53.210;5.768;2023-07-31T06:18:17;16.60;98.70
53748;DHT22;39655;53.210;5.768;2023-07-31T06:20:43;16.60;98.70
53748;DHT22;39655;53.210;5.768;2023-07-31T06:23:09;16.50;98.70
53748;DHT22;39655;53.210;5.768;2023-07-31T06:25:35;16.60;98.70
53748;DHT22;39655;53.210;5.768;2023-07-31T06:28:03;16.60;98.70
53748;DHT22;39655;53.210;5.768;2023-07-31T06:30:29;16.60;98.70
53748;DHT22;39655;53.210;5.768;2023-07-31T06:32:57;16.70;98.70
53748;DHT22;39655;53.210;5.768;2023-07-31T06:35:23;16.70;98.70
53748;DHT22;39655;53.210;5.768;2023-07-31T06:37:51;16.70;98.70
53748;DHT22;39655;53.210;5.768;2023-07-31T06:40:36;16.70;98.70
53748;DHT22;39655;53.210;5.768;2023-07-31T06:43:01;16.70;98.70
53748;DHT22;39655;53.210;5.768;2023-07-31T06:45:34;16.70;98.70
53748;DHT22;39655;53.210;5.768;2023-07-31T06:48:00;16.70;98.70
53748;DHT22;39655;53.210;5.768;2023-07-31T06:50:28;16.80;98.70
53748;DHT22;39655;53.210;5.768;2023-07-31T06:52:56;16.80;98.80
53748;DHT22;39655;53.210;5.768;2023-07-31T06:55:22;16.80;98.80
53748;DHT22;39655;53.210;5.768;2023-07-31T06:57:49;16.80;98.80
53748;DHT22;39655;53.210;5.768;2023-07-31T07:00:15;16.80;98.80
53748;DHT22;39655;53.210;5.768;2023-07-31T07:02:41;16.80;98.80
53748;DHT22;39655;53.210;5.768;2023-07-31T07:05:08;16.90;98.80
53748;DHT22;39655;53.210;5.768;2023-07-31T07:07:34;17.00;98.80
53748;DHT22;39655;53.210;5.768;2023-07-31T07:10:00;17.00;98.90
53748;DHT22;39655;53.210;5.768;2023-07-31T07:12:27;17.10;98.90
53748;DHT22;39655;53.210;5.768;2023-07-31T07:14:52;17.10;98.90
53748;DHT22;39655;53.210;5.768;2023-07-31T07:17:19;17.20;98.90
53748;DHT22;39655;53.210;5.768;2023-07-31T07:19:44;17.20;98.90
53748;DHT22;39655;53.210;5.768;2023-07-31T07:22:11;17.30;98.90
53748;DHT22;39655;53.210;5.768;2023-07-31T07:24:37;17.30;98.90
53748;DHT22;39655;53.210;5.768;2023-07-31T07:27:03;17.30;98.90
53748;DHT22;39655;53.210;5.768;2023-07-31T07:29:29;17.40;98.90
53748;DHT22;39655;53.210;5.768;2023-07-31T07:31:54;17.40;98.90
53748;DHT22;39655;53.210;5.768;2023-07-31T07:34:24;17.40;98.90
53748;DHT22;39655;53.210;5.768;2023-07-31T07:36:49;17.40;98.90
53748;DHT22;39655;53.210;5.768;2023-07-31T07:39:15;17.40;98.90
53748;DHT22;39655;53.210;5.768;2023-07-31T07:41:41;17.50;99.00
53748;DHT22;39655;53.210;5.768;2023-07-31T07:44:07;17.50;99.00
53748;DHT22;39655;53.210;5.768;2023-07-31T07:46:33;17.60;99.00
53748;DHT22;39655;53.210;5.768;2023-07-31T07:48:59;17.60;99.00
53748;DHT22;39655;53.210;5.768;2023-07-31T07:51:25;17.70;99.00
53748;DHT22;39655;53.210;5.768;2023-07-31T07:53:50;17.70;99.00
53748;DHT22;39655;53.210;5.768;2023-07-31T07:56:16;17.70;99.00
53748;DHT22;39655;53.210;5.768;2023-07-31T07:58:42;17.80;99.00
53748;DHT22;39655;53.210;5.768;2023-07-31T08:01:07;17.80;99.00
53748;DHT22;39655;53.210;5.768;2023-07-31T08:03:33;17.80;99.00
53748;DHT22;39655;53.210;5.768;2023-07-31T08:05:59;17.80;99.00
53748;DHT22;39655;53.210;5.768;2023-07-31T08:08:26;17.80;99.00
53748;DHT22;39655;53.210;5.768;2023-07-31T08:10:51;17.70;99.00
53748;DHT22;39655;53.210;5.768;2023-07-31T08:13:17;17.80;99.00
53748;DHT22;39655;53.210;5.768;2023-07-31T08:15:43;17.90;99.10
53748;DHT22;39655;53.210;5.768;2023-07-31T08:18:09;18.10;99.10
53748;DHT22;39655;53.210;5.768;2023-07-31T08:20:35;18.20;99.10
53748;DHT22;39655;53.210;5.768;2023-07-31T08:23:00;18.20;99.10
53748;DHT22;39655;53.210;5.768;2023-07-31T08:25:26;18.30;99.10
53748;DHT22;39655;53.210;5.768;2023-07-31T08:27:52;18.40;99.10
53748;DHT22;39655;53.210;5.768;2023-07-31T08:30:19;18.50;99.10
53748;DHT22;39655;53.210;5.768;2023-07-31T08:32:44;18.40;99.10
53748;DHT22;39655;53.210;5.768;2023-07-31T08:35:10;18.30;99.00
53748;DHT22;39655;53.210;5.768;2023-07-31T08:37:37;18.30;99.00
53748;DHT22;39655;53.210;5.768;2023-07-31T08:40:04;18.30;99.00
53748;DHT22;39655;53.210;5.768;2023-07-31T08:42:29;18.30;98.90
53748;DHT22;39655;53.210;5.768;2023-07-31T08:44:56;18.40;98.90
53748;DHT22;39655;53.210;5.768;2023-07-31T08:47:22;18.40;98.90
53748;DHT22;39655;53.210;5.768;2023-07-31T08:49:49;18.40;98.90
53748;DHT22;39655;53.210;5.768;2023-07-31T08:52:16;18.30;98.80
53748;DHT22;39655;53.210;5.768;2023-07-31T08:54:41;18.30;98.70
53748;DHT22;39655;53.210;5.768;2023-07-31T08:57:07;18.30;98.40
53748;DHT22;39655;53.210;5.768;2023-07-31T08:59:35;18.30;98.20
53748;DHT22;39655;53.210;5.768;2023-07-31T09:02:05;18.20;97.90
53748;DHT22;39655;53.210;5.768;2023-07-31T09:04:33;18.10;97.80
53748;DHT22;39655;53.210;5.768;2023-07-31T09:07:01;18.10;97.90
53748;DHT22;39655;53.210;5.768;2023-07-31T09:09:29;18.10;97.90
53748;DHT22;39655;53.210;5.768;2023-07-31T09:11:55;18.00;97.90
53748;DHT22;39655;53.210;5.768;2023-07-31T09:14:21;18.00;98.00
53748;DHT22;39655;53.210;5.768;2023-07-31T09:16:58;17.90;97.80
53748;DHT22;39655;53.210;5.768;2023-07-31T09:19:34;17.80;97.80
53748;DHT22;39655;53.210;5.768;2023-07-31T09:22:02;17.70;97.80
53748;DHT22;39655;53.210;5.768;2023-07-31T09:24:29;17.70;97.80
53748;DHT22;39655;53.210;5.768;2023-07-31T09:26:57;17.60;97.80
53748;DHT22;39655;53.210;5.768;2023-07-31T09:29:24;17.60;97.80
53748;DHT22;39655;53.210;5.768;2023-07-31T09:31:50;17.70;97.90
53748;DHT22;39655;53.210;5.768;2023-07-31T09:34:16;17.70;98.00
53748;DHT22;39655;53.210;5.768;2023-07-31T09:36:50;17.70;98.00
53748;DHT22;39655;53.210;5.768;2023-07-31T09:39:18;17.70;98.10
53748;DHT22;39655;53.210;5.768;2023-07-31T09:41:47;17.80;98.10
53748;DHT22;39655;53.210;5.768;2023-07-31T09:44:18;17.80;98.10
53748;DHT22;39655;53.210;5.768;2023-07-31T09:46:44;17.90;98.20
53748;DHT22;39655;53.210;5.768;2023-07-31T09:49:10;17.90;98.20
53748;DHT22;39655;53.210;5.768;2023-07-31T09:51:41;18.00;98.30
53748;DHT22;39655;53.210;5.768;2023-07-31T09:54:11;18.00;98.30
53748;DHT22;39655;53.210;5.768;2023-07-31T09:56:47;18.10;98.30
53748;DHT22;39655;53.210;5.768;2023-07-31T09:59:19;18.10;98.30
53748;DHT22;39655;53.210;5.768;2023-07-31T10:01:46;18.20;98.30
53748;DHT22;39655;53.210;5.768;2023-07-31T10:04:13;18.20;98.30
53748;DHT22;39655;53.210;5.768;2023-07-31T10:06:40;18.30;98.30
53748;DHT22;39655;53.210;5.768;2023-07-31T10:09:09;18.30;98.20
53748;DHT22;39655;53.210;5.768;2023-07-31T10:11:46;18.30;98.20
53748;DHT22;39655;53.210;5.768;2023-07-31T10:14:20;18.40;98.30
53748;DHT22;39655;53.210;5.768;2023-07-31T10:16:46;18.50;98.30
53748;DHT22;39655;53.210;5.768;2023-07-31T10:19:15;18.50;98.30
53748;DHT22;39655;53.210;5.768;2023-07-31T10:21:42;18.40;98.20
53748;DHT22;39655;53.210;5.768;2023-07-31T10:24:08;18.30;98.20
53748;DHT22;39655;53.210;5.768;2023-07-31T10:26:35;18.30;98.20
53748;DHT22;39655;53.210;5.768;2023-07-31T10:29:03;18.40;98.20
53748;DHT22;39655;53.210;5.768;2023-07-31T10:31:30;18.40;98.20
53748;DHT22;39655;53.210;5.768;2023-07-31T10:33:59;18.50;98.20
53748;DHT22;39655;53.210;5.768;2023-07-31T10:36:26;18.60;98.20
53748;DHT22;39655;53.210;5.768;2023-07-31T10:38:52;18.70;98.20
53748;DHT22;39655;53.210;5.768;2023-07-31T10:41:31;18.80;98.10
53748;DHT22;39655;53.210;5.768;2023-07-31T10:43:58;18.70;97.80
53748;DHT22;39655;53.210;5.768;2023-07-31T10:46:24;18.80;97.90
53748;DHT22;39655;53.210;5.768;2023-07-31T10:48:58;18.80;97.70
53748;DHT22;39655;53.210;5.768;2023-07-31T10:51:35;19.00;97.90
53748;DHT22;39655;53.210;5.768;2023-07-31T10:54:15;19.10;97.70
53748;DHT22;39655;53.210;5.768;2023-07-31T10:56:46;19.00;97.40
53748;DHT22;39655;53.210;5.768;2023-07-31T10:59:15;18.90;97.20
53748;DHT22;39655;53.210;5.768;2023-07-31T11:01:53;18.80;97.20
53748;DHT22;39655;53.210;5.768;2023-07-31T11:04:24;18.70;97.00
53748;DHT22;39655;53.210;5.768;2023-07-31T11:07:01;18.70;97.20
53748;DHT22;39655;53.210;5.768;2023-07-31T11:09:30;18.70;97.30
53748;DHT22;39655;53.210;5.768;2023-07-31T11:11:56;18.70;97.40
53748;DHT22;39655;53.210;5.768;2023-07-31T11:14:22;18.60;97.40
53748;DHT22;39655;53.210;5.768;2023-07-31T11:16:51;18.50;97.30
53748;DHT22;39655;53.210;5.768;2023-07-31T11:19:24;18.60;97.50
53748;DHT22;39655;53.210;5.768;2023-07-31T11:21:54;18.70;97.60
53748;DHT22;39655;53.210;5.768;2023-07-31T11:24:22;18.90;97.70
53748;DHT22;39655;53.210;5.768;2023-07-31T11:26:52;18.90;97.60
53748;DHT22;39655;53.210;5.768;2023-07-31T11:29:18;19.00;97.60
53748;DHT22;39655;53.210;5.768;2023-07-31T11:31:45;18.80;97.40
53748;DHT22;39655;53.210;5.768;2023-07-31T11:34:12;18.80;97.40
53748;DHT22;39655;53.210;5.768;2023-07-31T11:36:37;18.90;97.50
53748;DHT22;39655;53.210;5.768;2023-07-31T11:39:10;19.10;97.60
53748;DHT22;39655;53.210;5.768;2023-07-31T11:41:35;19.10;97.50
53748;DHT22;39655;53.210;5.768;2023-07-31T11:44:01;19.10;97.40
53748;DHT22;39655;53.210;5.768;2023-07-31T11:46:30;19.20;97.60
53748;DHT22;39655;53.210;5.768;2023-07-31T11:49:00;19.40;97.70
53748;DHT22;39655;53.210;5.768;2023-07-31T11:51:26;19.30;97.60
53748;DHT22;39655;53.210;5.768;2023-07-31T11:53:54;19.30;97.60
53748;DHT22;39655;53.210;5.768;2023-07-31T11:56:21;19.20;97.50
53748;DHT22;39655;53.210;5.768;2023-07-31T11:58:52;19.10;96.60
53748;DHT22;39655;53.210;5.768;2023-07-31T12:01:19;19.10;96.60
53748;DHT22;39655;53.210;5.768;2023-07-31T12:03:46;19.30;96.90
53748;DHT22;39655;53.210;5.768;2023-07-31T12:06:12;19.40;96.80
53748;DHT22;39655;53.210;5.768;2023-07-31T12:08:38;19.40;96.60
53748;DHT22;39655;53.210;5.768;2023-07-31T12:11:05;19.40;96.50
53748;DHT22;39655;53.210;5.768;2023-07-31T12:13:34;19.40;96.30
53748;DHT22;39655;53.210;5.768;2023-07-31T12:16:02;19.40;95.90
53748;DHT22;39655;53.210;5.768;2023-07-31T12:18:33;19.40;95.70
53748;DHT22;39655;53.210;5.768;2023-07-31T12:21:00;19.40;95.70
53748;DHT22;39655;53.210;5.768;2023-07-31T12:23:27;19.40;95.50
53748;DHT22;39655;53.210;5.768;2023-07-31T12:26:15;19.40;95.00
53748;DHT22;39655;53.210;5.768;2023-07-31T12:31:10;19.30;95.00
53748;DHT22;39655;53.210;5.768;2023-07-31T12:33:38;19.10;95.20
53748;DHT22;39655;53.210;5.768;2023-07-31T12:36:13;19.00;95.50
53748;DHT22;39655;53.210;5.768;2023-07-31T12:38:40;19.00;95.80
53748;DHT22;39655;53.210;5.768;2023-07-31T12:41:06;19.00;96.30
53748;DHT22;39655;53.210;5.768;2023-07-31T12:43:35;19.10;96.40
53748;DHT22;39655;53.210;5.768;2023-07-31T12:46:01;19.10;96.40
53748;DHT22;39655;53.210;5.768;2023-07-31T12:48:27;19.10;96.30
53748;DHT22;39655;53.210;5.768;2023-07-31T12:50:53;19.00;96.30
53748;DHT22;39655;53.210;5.768;2023-07-31T12:53:19;19.00;96.30
53748;DHT22;39655;53.210;5.768;2023-07-31T12:55:44;19.00;96.40
53748;DHT22;39655;53.210;5.768;2023-07-31T12:58:10;19.00;96.40
53748;DHT22;39655;53.210;5.768;2023-07-31T13:00:36;19.10;96.60
53748;DHT22;39655;53.210;5.768;2023-07-31T13:03:02;19.20;96.40
53748;DHT22;39655;53.210;5.768;2023-07-31T13:05:28;19.40;96.30
53748;DHT22;39655;53.210;5.768;2023-07-31T13:07:54;19.50;95.90
53748;DHT22;39655;53.210;5.768;2023-07-31T13:10:21;19.60;95.50
53748;DHT22;39655;53.210;5.768;2023-07-31T13:12:47;19.80;94.60
53748;DHT22;39655;53.210;5.768;2023-07-31T13:15:13;19.70;93.70
53748;DHT22;39655;53.210;5.768;2023-07-31T13:17:39;19.90;93.80
53748;DHT22;39655;53.210;5.768;2023-07-31T13:20:05;20.00;93.40
53748;DHT22;39655;53.210;5.768;2023-07-31T13:22:31;20.20;93.70
53748;DHT22;39655;53.210;5.768;2023-07-31T13:24:57;20.30;92.90
53748;DHT22;39655;53.210;5.768;2023-07-31T13:27:23;20.20;92.20
53748;DHT22;39655;53.210;5.768;2023-07-31T13:29:50;20.10;92.20
53748;DHT22;39655;53.210;5.768;2023-07-31T13:32:17;20.00;92.20
53748;DHT22;39655;53.210;5.768;2023-07-31T13:34:43;20.00;92.80
53748;DHT22;39655;53.210;5.768;2023-07-31T13:37:09;20.10;92.20
53748;DHT22;39655;53.210;5.768;2023-07-31T13:39:35;20.20;90.90
53748;DHT22;39655;53.210;5.768;2023-07-31T13:42:02;20.30;91.10
53748;DHT22;39655;53.210;5.768;2023-07-31T13:44:28;20.30;89.90
53748;DHT22;39655;53.210;5.768;2023-07-31T13:46:54;20.30;90.40
53748;DHT22;39655;53.210;5.768;2023-07-31T13:49:20;20.40;89.10
53748;DHT22;39655;53.210;5.768;2023-07-31T13:51:46;20.30;89.20
53748;DHT22;39655;53.210;5.768;2023-07-31T13:54:11;20.20;89.60
53748;DHT22;39655;53.210;5.768;2023-07-31T13:56:38;20.10;89.30
53748;DHT22;39655;53.210;5.768;2023-07-31T13:59:04;20.10;88.50
53748;DHT22;39655;53.210;5.768;2023-07-31T14:01:31;19.90;89.40
53748;DHT22;39655;53.210;5.768;2023-07-31T14:03:56;19.80;90.00
53748;DHT22;39655;53.210;5.768;2023-07-31T14:06:22;19.80;90.70
53748;DHT22;39655;53.210;5.768;2023-07-31T14:08:48;19.90;90.50
53748;DHT22;39655;53.210;5.768;2023-07-31T14:11:14;20.00;90.30
53748;DHT22;39655;53.210;5.768;2023-07-31T14:13:39;20.00;89.70
53748;DHT22;39655;53.210;5.768;2023-07-31T14:16:05;19.90;90.30
53748;DHT22;39655;53.210;5.768;2023-07-31T14:18:31;19.90;90.00
53748;DHT22;39655;53.210;5.768;2023-07-31T14:20:57;19.80;90.20
53748;DHT22;39655;53.210;5.768;2023-07-31T14:23:23;19.90;89.80
53748;DHT22;39655;53.210;5.768;2023-07-31T14:25:49;19.80;89.40
53748;DHT22;39655;53.210;5.768;2023-07-31T14:28:14;19.90;89.40
53748;DHT22;39655;53.210;5.768;2023-07-31T14:30:40;19.80;88.90
53748;DHT22;39655;53.210;5.768;2023-07-31T14:33:06;19.90;89.10
53748;DHT22;39655;53.210;5.768;2023-07-31T14:35:32;19.80;89.30
53748;DHT22;39655;53.210;5.768;2023-07-31T14:37:57;19.70;90.20
53748;DHT22;39655;53.210;5.768;2023-07-31T14:40:23;19.80;89.80
53748;DHT22;39655;53.210;5.768;2023-07-31T14:42:49;19.80;89.70
53748;DHT22;39655;53.210;5.768;2023-07-31T14:45:15;19.90;89.50
53748;DHT22;39655;53.210;5.768;2023-07-31T14:47:41;19.80;89.90
53748;DHT22;39655;53.210;5.768;2023-07-31T14:50:07;19.80;90.00
53748;DHT22;39655;53.210;5.768;2023-07-31T14:52:33;19.80;89.70
53748;DHT22;39655;53.210;5.768;2023-07-31T14:54:58;19.80;90.10
53748;DHT22;39655;53.210;5.768;2023-07-31T14:57:24;19.70;90.40
53748;DHT22;39655;53.210;5.768;2023-07-31T14:59:50;19.70;90.70
53748;DHT22;39655;53.210;5.768;2023-07-31T15:02:15;19.70;90.80
53748;DHT22;39655;53.210;5.768;2023-07-31T15:04:41;19.70;90.50
53748;DHT22;39655;53.210;5.768;2023-07-31T15:07:07;19.60;90.70
53748;DHT22;39655;53.210;5.768;2023-07-31T15:09:33;19.60;90.90
53748;DHT22;39655;53.210;5.768;2023-07-31T15:11:59;19.60;91.20
53748;DHT22;39655;53.210;5.768;2023-07-31T15:14:25;19.60;91.10
53748;DHT22;39655;53.210;5.768;2023-07-31T15:16:53;19.60;91.00
53748;DHT22;39655;53.210;5.768;2023-07-31T15:19:18;19.60;90.80
53748;DHT22;39655;53.210;5.768;2023-07-31T15:21:44;19.60;90.40
53748;DHT22;39655;53.210;5.768;2023-07-31T15:24:10;19.60;90.50
53748;DHT22;39655;53.210;5.768;2023-07-31T15:26:37;19.60;90.60
53748;DHT22;39655;53.210;5.768;2023-07-31T15:29:06;19.60;91.10
53748;DHT22;39655;53.210;5.768;2023-07-31T15:31:39;19.60;91.10
53748;DHT22;39655;53.210;5.768;2023-07-31T15:34:06;19.70;91.20
53748;DHT22;39655;53.210;5.768;2023-07-31T15:36:32;19.70;91.00
53748;DHT22;39655;53.210;5.768;2023-07-31T15:38:58;19.60;91.00
53748;DHT22;39655;53.210;5.768;2023-07-31T15:41:24;19.60;91.40
53748;DHT22;39655;53.210;5.768;2023-07-31T15:43:51;19.60;91.30
53748;DHT22;39655;53.210;5.768;2023-07-31T15:46:17;19.60;91.50
53748;DHT22;39655;53.210;5.768;2023-07-31T15:48:44;19.60;90.60
53748;DHT22;39655;53.210;5.768;2023-07-31T15:51:09;19.70;90.50
53748;DHT22;39655;53.210;5.768;2023-07-31T15:53:35;19.70;90.40
53748;DHT22;39655;53.210;5.768;2023-07-31T15:56:01;19.60;90.20
53748;DHT22;39655;53.210;5.768;2023-07-31T15:58:27;19.60;89.90
53748;DHT22;39655;53.210;5.768;2023-07-31T16:00:53;19.50;90.20
53748;DHT22;39655;53.210;5.768;2023-07-31T16:03:19;19.50;90.60
53748;DHT22;39655;53.210;5.768;2023-07-31T16:05:47;19.60;90.40